Joint Base Elmendorf-Richardson, Alaska
Current Conditions -  °F | °C
As of 5:58 PM on Tuesday 21 Oct 2014 (Local Time) from PAED Reporting Station
Clear Clear  
Wind Chill: 35°   Ceiling: Unl
Heat Index: 39°   Visibility: 10mi
Dew Point: 28°   Wind: 6mph
Humidity: 65%   Direction: 70°ENE
Pressure: 29.24"   Gusts: NA
Location:  61.25°N, 149.81°W
Report Text: PAED 220158Z AUTO 07005KT 10SM CLR 04/M02 A2924 RMK AO2 SLP899 T00401020 $
Loading
Personal Weather Stations






























Interactive Weather Map
Tropical Storm Tracking
New forecast layout! Learn more

10-Day Weather Forecast

Advertisements
Track Severe Weather on mobile